createdAt,value
2023-02-16T00:01:19.274Z,1.66
2023-02-16T00:03:46.631Z,1.71
2023-02-16T00:06:16.081Z,1.61
2023-02-16T00:08:44.277Z,1.72
2023-02-16T00:11:43.283Z,1.75
2023-02-16T00:14:12.909Z,1.61
2023-02-16T00:16:40.803Z,1.65
2023-02-16T00:19:17.952Z,1.70
2023-02-16T00:21:45.338Z,1.64
2023-02-16T00:24:12.600Z,1.65
2023-02-16T00:26:41.119Z,1.68
2023-02-16T00:29:11.765Z,1.69
2023-02-16T00:31:40.451Z,1.72
2023-02-16T00:34:19.395Z,1.62
2023-02-16T00:36:46.645Z,1.50
2023-02-16T00:39:13.904Z,1.57
2023-02-16T00:42:00.988Z,1.62
2023-02-16T00:44:31.885Z,1.55
2023-02-16T00:47:02.305Z,1.60
2023-02-16T00:49:29.688Z,1.64
2023-02-16T00:51:57.226Z,1.67
2023-02-16T00:54:24.500Z,1.61
2023-02-16T00:56:52.117Z,1.59
2023-02-16T00:59:21.425Z,1.61
2023-02-16T01:01:49.639Z,1.59
2023-02-16T01:04:21.741Z,1.48
2023-02-16T01:07:06.530Z,1.62
2023-02-16T01:09:51.280Z,1.69
2023-02-16T01:12:20.952Z,1.65
2023-02-16T01:14:50.312Z,1.65
2023-02-16T01:17:17.565Z,1.48
2023-02-16T01:19:46.154Z,1.58
2023-02-16T01:22:13.422Z,1.58
2023-02-16T01:24:40.692Z,1.65
2023-02-16T01:27:11.187Z,1.56
2023-02-16T01:29:38.479Z,1.45
2023-02-16T01:32:05.899Z,1.48
2023-02-16T01:34:33.253Z,1.40
2023-02-16T01:37:01.811Z,1.48
2023-02-16T01:39:29.103Z,1.49
2023-02-16T01:42:20.658Z,1.49
2023-02-16T01:44:49.671Z,1.45
2023-02-16T01:47:27.038Z,1.41
2023-02-16T01:49:54.295Z,1.41
2023-02-16T01:52:27.292Z,1.50
2023-02-16T01:54:57.071Z,1.41
2023-02-16T01:57:28.527Z,1.48
2023-02-16T02:00:05.008Z,1.46
2023-02-16T02:02:35.618Z,1.49
2023-02-16T02:05:25.237Z,1.42
2023-02-16T02:07:55.847Z,1.39
2023-02-16T02:10:27.426Z,1.33
2023-02-16T02:12:59.548Z,1.27
2023-02-16T02:15:29.389Z,1.29
2023-02-16T02:17:56.638Z,1.33
2023-02-16T02:20:47.323Z,1.18
2023-02-16T02:23:33.923Z,1.21
2023-02-16T02:26:13.966Z,1.19
2023-02-16T02:28:48.449Z,1.14
2023-02-16T02:31:20.726Z,1.18
2023-02-16T02:33:54.692Z,1.14
2023-02-16T02:36:28.841Z,1.31
2023-02-16T02:39:02.463Z,1.22
2023-02-16T02:41:47.169Z,1.18
2023-02-16T02:44:18.574Z,1.06
2023-02-16T02:46:45.903Z,1.03
2023-02-16T02:49:13.221Z,1.10
2023-02-16T02:51:41.103Z,1.03
2023-02-16T02:54:27.326Z,1.10
2023-02-16T02:57:14.666Z,1.14
2023-02-16T03:00:02.890Z,1.14
2023-02-16T03:02:31.374Z,1.12
2023-02-16T03:04:59.889Z,1.17
2023-02-16T03:07:46.496Z,1.22
2023-02-16T03:10:32.577Z,1.14
2023-02-16T03:13:00.841Z,1.03
2023-02-16T03:15:31.065Z,1.01
2023-02-16T03:18:16.259Z,0.96
2023-02-16T03:21:02.891Z,1.07
2023-02-16T03:23:48.105Z,1.00
2023-02-16T03:26:33.659Z,0.98
2023-02-16T03:29:22.541Z,1.01
2023-02-16T03:31:51.876Z,1.01
2023-02-16T03:34:20.831Z,1.02
2023-02-16T03:36:49.527Z,0.98
2023-02-16T03:39:17.244Z,0.78
2023-02-16T03:41:47.262Z,0.86
2023-02-16T03:44:14.530Z,0.68
2023-02-16T03:46:41.981Z,0.33
2023-02-16T03:49:10.588Z,0.66
2023-02-16T03:51:38.032Z,0.73
2023-02-16T03:54:05.605Z,0.73
2023-02-16T03:56:32.856Z,0.59
2023-02-16T03:59:00.429Z,0.65
2023-02-16T04:01:27.686Z,0.61
2023-02-16T04:03:55.039Z,0.80
2023-02-16T04:06:23.654Z,0.65
2023-02-16T04:08:51.689Z,0.74
2023-02-16T04:11:36.635Z,0.73
2023-02-16T04:14:03.948Z,0.65
2023-02-16T04:16:31.233Z,0.63
2023-02-16T04:18:58.818Z,0.52
2023-02-16T04:21:27.453Z,0.48
2023-02-16T04:23:54.734Z,0.76
2023-02-16T04:26:22.017Z,0.84
2023-02-16T04:28:49.281Z,0.44
2023-02-16T04:31:16.799Z,0.49
2023-02-16T04:33:44.136Z,0.52
2023-02-16T04:36:11.475Z,0.43
2023-02-16T04:38:40.048Z,0.55
2023-02-16T04:41:07.625Z,0.54
2023-02-16T04:43:35.171Z,0.71
2023-02-16T04:46:02.594Z,0.74
2023-02-16T04:48:30.221Z,0.68
2023-02-16T04:50:57.487Z,0.68
2023-02-16T04:53:24.765Z,0.72
2023-02-16T04:55:53.374Z,0.79
2023-02-16T04:58:20.642Z,0.71
2023-02-16T05:00:47.915Z,0.77
2023-02-16T05:03:15.213Z,0.81
2023-02-16T05:05:42.500Z,0.78
2023-02-16T05:08:09.754Z,0.84
2023-02-16T05:10:37.009Z,0.76
2023-02-16T05:13:23.383Z,0.67
2023-02-16T05:15:50.687Z,0.74
2023-02-16T05:18:17.953Z,0.74
2023-02-16T05:21:11.011Z,0.77
2023-02-16T05:23:39.018Z,0.76
2023-02-16T05:26:06.324Z,0.75
2023-02-16T05:28:34.942Z,0.67
2023-02-16T05:31:02.511Z,0.68
2023-02-16T05:33:30.109Z,0.77
2023-02-16T05:35:57.408Z,0.70
2023-02-16T05:38:24.685Z,0.76
2023-02-16T05:40:51.930Z,0.66
2023-02-16T05:43:19.969Z,0.60
2023-02-16T05:45:48.534Z,0.65
2023-02-16T05:48:15.833Z,0.64
2023-02-16T05:50:43.122Z,0.70
2023-02-16T05:53:10.567Z,0.65
2023-02-16T05:55:37.819Z,0.49
2023-02-16T05:58:05.073Z,0.63
2023-02-16T06:00:33.696Z,0.63
2023-02-16T06:03:02.302Z,0.44
2023-02-16T06:05:29.577Z,0.50
2023-02-16T06:07:56.918Z,0.55
2023-02-16T06:10:24.221Z,0.58
2023-02-16T06:12:51.495Z,0.67
2023-02-16T06:15:18.744Z,0.68
2023-02-16T06:17:46.035Z,0.62
2023-02-16T06:20:14.834Z,0.62
2023-02-16T06:22:42.113Z,0.67
2023-02-16T06:25:09.627Z,0.65
2023-02-16T06:27:36.931Z,0.66
2023-02-16T06:30:04.719Z,0.62
2023-02-16T06:32:33.508Z,0.69
2023-02-16T06:35:00.819Z,0.83
2023-02-16T06:37:29.405Z,0.87
2023-02-16T06:39:56.696Z,0.81
2023-02-16T06:42:23.962Z,0.87
2023-02-16T06:44:51.240Z,0.88
2023-02-16T06:47:18.529Z,0.81
2023-02-16T06:49:45.795Z,0.95
2023-02-16T06:52:13.198Z,0.93
2023-02-16T06:54:41.760Z,0.92
2023-02-16T06:57:09.036Z,0.99
2023-02-16T06:59:36.355Z,1.01
2023-02-16T07:02:03.644Z,1.09
2023-02-16T07:04:30.930Z,1.19
2023-02-16T07:06:58.173Z,1.18
2023-02-16T07:09:25.541Z,1.24
2023-02-16T07:11:54.371Z,1.17
2023-02-16T07:14:22.147Z,1.18
2023-02-16T07:16:49.402Z,1.28
2023-02-16T07:19:16.738Z,1.34
2023-02-16T07:21:44.076Z,1.33
2023-02-16T07:24:11.437Z,1.39
2023-02-16T07:26:39.446Z,1.38
2023-02-16T07:29:08.248Z,1.38
2023-02-16T07:31:35.652Z,1.38
2023-02-16T07:34:03.038Z,1.40
2023-02-16T07:36:30.326Z,1.38
2023-02-16T07:38:57.627Z,1.50
2023-02-16T07:41:24.900Z,1.55
2023-02-16T07:43:52.325Z,1.49
2023-02-16T07:46:20.925Z,1.63
2023-02-16T07:48:48.532Z,1.59
2023-02-16T07:51:21.006Z,1.75
2023-02-16T07:53:48.278Z,1.83
2023-02-16T07:56:19.576Z,1.99
2023-02-16T07:58:47.341Z,2.06
2023-02-16T08:01:15.995Z,2.13
2023-02-16T08:03:44.685Z,2.29
2023-02-16T08:06:12.020Z,2.32
2023-02-16T08:08:39.625Z,2.48
2023-02-16T08:11:10.727Z,2.59
2023-02-16T08:13:38.066Z,2.65
2023-02-16T08:16:08.448Z,2.78
2023-02-16T08:18:35.753Z,2.85
2023-02-16T08:21:13.752Z,2.93
2023-02-16T08:23:43.241Z,3.09
2023-02-16T08:26:11.334Z,3.14
2023-02-16T08:28:39.216Z,3.29
2023-02-16T08:31:07.014Z,3.36
2023-02-16T08:33:34.960Z,3.55
2023-02-16T08:36:03.422Z,3.74
2023-02-16T08:38:34.313Z,3.82
2023-02-16T08:41:01.574Z,3.78
2023-02-16T08:43:28.852Z,3.98
2023-02-16T08:45:57.192Z,4.16
2023-02-16T08:48:24.510Z,4.30
2023-02-16T08:50:54.984Z,4.41
2023-02-16T08:53:23.532Z,4.32
2023-02-16T08:55:56.289Z,4.34
2023-02-16T08:58:24.366Z,4.59
2023-02-16T09:00:51.707Z,4.67
2023-02-16T09:03:19.670Z,4.90
2023-02-16T09:05:47.509Z,5.06
2023-02-16T09:08:15.742Z,5.21
2023-02-16T09:10:43.264Z,5.29
2023-02-16T09:13:14.970Z,5.26
2023-02-16T09:15:43.027Z,5.29
2023-02-16T09:18:10.561Z,5.38
2023-02-16T09:20:39.012Z,5.48
2023-02-16T09:23:06.459Z,5.72
2023-02-16T09:25:35.463Z,5.92
2023-02-16T09:28:02.842Z,5.99
2023-02-16T09:30:31.558Z,5.95
2023-02-16T09:32:59.419Z,6.19
2023-02-16T09:35:26.730Z,6.36
2023-02-16T09:37:54.023Z,6.46
2023-02-16T09:40:21.481Z,6.55
2023-02-16T09:42:57.445Z,6.66
2023-02-16T09:45:26.831Z,6.60
2023-02-16T09:47:59.052Z,6.56
2023-02-16T09:50:52.095Z,6.68
2023-02-16T09:53:20.875Z,6.67
2023-02-16T09:55:51.342Z,6.80
2023-02-16T09:58:21.373Z,6.84
2023-02-16T10:00:50.841Z,7.03
2023-02-16T10:03:28.808Z,7.17
2023-02-16T10:06:01.088Z,7.20
2023-02-16T10:08:30.090Z,7.14
2023-02-16T10:11:01.206Z,7.23
2023-02-16T10:13:33.753Z,7.27
2023-02-16T10:16:02.927Z,7.07
2023-02-16T10:18:34.856Z,7.32
2023-02-16T10:21:04.080Z,7.43
2023-02-16T10:23:39.414Z,7.44
2023-02-16T10:26:11.664Z,7.64
2023-02-16T10:28:42.976Z,7.77
2023-02-16T10:31:13.709Z,7.73
2023-02-16T10:33:43.395Z,7.86
2023-02-16T10:36:17.807Z,7.94
2023-02-16T10:38:49.888Z,8.08
2023-02-16T10:41:18.623Z,8.23
2023-02-16T10:43:48.599Z,8.26
2023-02-16T10:46:18.057Z,8.33
2023-02-16T10:48:47.411Z,8.26
2023-02-16T10:51:17.270Z,8.48
2023-02-16T10:53:45.591Z,8.61
2023-02-16T10:56:24.398Z,8.74
2023-02-16T10:58:51.928Z,8.81
2023-02-16T11:01:20.283Z,8.66
2023-02-16T11:03:50.388Z,8.26
2023-02-16T11:06:18.817Z,8.48
2023-02-16T11:08:49.885Z,8.65
2023-02-16T11:11:18.024Z,8.78
2023-02-16T11:13:48.064Z,8.75
2023-02-16T11:16:20.266Z,8.70
2023-02-16T11:18:50.832Z,8.83
2023-02-16T11:21:18.438Z,9.01
2023-02-16T11:23:58.170Z,9.09
2023-02-16T11:26:28.744Z,9.25
2023-02-16T11:29:07.489Z,9.37
2023-02-16T11:31:37.406Z,9.30
2023-02-16T11:34:07.583Z,9.45
2023-02-16T11:36:37.276Z,9.46
2023-02-16T11:39:06.810Z,9.33
2023-02-16T11:41:34.649Z,9.54
2023-02-16T11:44:02.856Z,9.66
2023-02-16T11:46:39.068Z,9.70
2023-02-16T11:52:01.202Z,9.79
2023-02-16T11:54:28.503Z,9.85
2023-02-16T11:57:03.163Z,9.96
2023-02-16T11:59:33.407Z,9.80
2023-02-16T12:02:10.777Z,9.87
2023-02-16T12:04:46.627Z,9.88
2023-02-16T12:07:20.301Z,10.02
2023-02-16T12:09:52.624Z,10.00
2023-02-16T12:12:27.512Z,10.06
2023-02-16T12:15:02.543Z,10.12
2023-02-16T12:17:38.573Z,10.24
2023-02-16T12:20:14.473Z,10.35
2023-02-16T12:22:47.091Z,10.29
2023-02-16T12:25:23.599Z,10.40
2023-02-16T12:27:54.030Z,10.19
2023-02-16T12:30:27.907Z,10.24
2023-02-16T12:33:07.992Z,10.36
2023-02-16T12:35:43.950Z,10.32
2023-02-16T12:38:19.569Z,10.42
2023-02-16T12:40:51.693Z,10.42
2023-02-16T12:43:27.650Z,10.39
2023-02-16T12:45:56.886Z,10.31
2023-02-16T12:48:32.801Z,10.16
2023-02-16T12:51:02.847Z,10.25
2023-02-16T12:53:37.522Z,10.29
2023-02-16T12:56:11.519Z,10.29
2023-02-16T12:58:41.078Z,10.35
2023-02-16T13:01:14.567Z,10.22
2023-02-16T13:03:46.651Z,9.97
2023-02-16T13:06:20.312Z,9.95
2023-02-16T13:08:52.374Z,9.88
2023-02-16T13:11:22.351Z,9.81
2023-02-16T13:13:50.791Z,9.90
2023-02-16T13:16:29.994Z,9.88
2023-02-16T13:18:58.838Z,9.86
2023-02-16T13:21:49.079Z,9.97
2023-02-16T13:24:23.542Z,10.12
2023-02-16T13:26:57.632Z,10.20
2023-02-16T13:29:54.935Z,10.22
2023-02-16T13:32:29.076Z,10.29
2023-02-16T13:35:02.258Z,10.14
2023-02-16T13:37:38.805Z,9.94
2023-02-16T13:40:17.434Z,9.76
2023-02-16T13:42:50.896Z,9.78
2023-02-16T13:45:19.408Z,9.77
2023-02-16T13:47:46.858Z,9.69
2023-02-16T13:50:25.898Z,9.62
2023-02-16T13:52:54.078Z,9.59
2023-02-16T13:55:25.924Z,9.59
2023-02-16T13:58:00.124Z,9.64
2023-02-16T14:00:29.933Z,9.54
2023-02-16T14:02:58.612Z,9.52
2023-02-16T14:05:27.684Z,9.47
2023-02-16T14:08:11.860Z,9.56
2023-02-16T14:11:06.621Z,9.48
2023-02-16T14:13:45.174Z,9.37
2023-02-16T14:16:14.527Z,9.32
2023-02-16T14:18:43.766Z,9.41
2023-02-16T14:21:19.338Z,9.39
2023-02-16T14:23:54.774Z,9.36
2023-02-16T14:26:22.568Z,9.30
2023-02-16T14:29:00.033Z,9.21
2023-02-16T14:31:28.428Z,9.15
2023-02-16T14:34:01.423Z,9.03
2023-02-16T14:36:30.180Z,9.01
2023-02-16T14:38:59.266Z,8.93
2023-02-16T14:41:28.121Z,8.90
2023-02-16T14:44:12.671Z,8.80
2023-02-16T14:46:46.577Z,8.69
2023-02-16T14:49:33.912Z,8.66
2023-02-16T14:52:10.656Z,8.48
2023-02-16T14:55:00.749Z,8.41
2023-02-16T14:57:32.139Z,8.35
2023-02-16T15:00:04.175Z,8.42
2023-02-16T15:02:32.812Z,8.43
2023-02-16T15:05:16.119Z,8.52
2023-02-16T15:07:46.429Z,8.48
2023-02-16T15:10:15.054Z,8.42
2023-02-16T15:12:44.018Z,8.35
2023-02-16T15:15:18.622Z,8.39
2023-02-16T15:17:47.187Z,8.28
2023-02-16T15:20:20.914Z,8.20
2023-02-16T15:22:51.137Z,8.08
2023-02-16T15:25:23.297Z,7.98
2023-02-16T15:27:54.358Z,7.86
2023-02-16T15:30:24.676Z,7.63
2023-02-16T15:32:53.706Z,7.64
2023-02-16T15:35:25.711Z,7.65
2023-02-16T15:38:00.304Z,7.54
2023-02-16T15:40:29.887Z,7.53
2023-02-16T15:43:00.821Z,7.49
2023-02-16T15:45:30.722Z,7.36
2023-02-16T15:48:12.965Z,7.38
2023-02-16T15:50:40.288Z,7.39
2023-02-16T15:53:11.602Z,7.31
2023-02-16T15:55:42.453Z,7.08
2023-02-16T15:58:12.411Z,7.12
2023-02-16T16:00:41.979Z,7.10
2023-02-16T16:03:11.076Z,6.94
2023-02-16T16:05:40.781Z,6.77
2023-02-16T16:08:09.253Z,6.75
2023-02-16T16:10:41.577Z,6.52
2023-02-16T16:13:13.730Z,6.55
2023-02-16T16:15:43.465Z,6.55
2023-02-16T16:18:25.747Z,6.46
2023-02-16T16:21:00.160Z,6.22
2023-02-16T16:23:28.256Z,6.20
2023-02-16T16:25:55.986Z,6.07
2023-02-16T16:28:33.915Z,6.16
2023-02-16T16:31:09.860Z,6.03
2023-02-16T16:33:52.115Z,6.02
2023-02-16T16:36:19.499Z,5.87
2023-02-16T16:38:46.763Z,5.99
2023-02-16T16:41:27.542Z,5.81
2023-02-16T16:43:55.592Z,5.81
2023-02-16T16:46:26.943Z,5.73
2023-02-16T16:48:56.449Z,5.56
2023-02-16T16:51:37.808Z,5.61
2023-02-16T16:54:05.563Z,5.55
2023-02-16T16:56:35.804Z,5.49
2023-02-16T16:59:03.109Z,5.51
2023-02-16T17:01:31.882Z,5.52
2023-02-16T17:04:01.631Z,5.46
2023-02-16T17:06:28.892Z,5.41
2023-02-16T17:08:56.221Z,5.42
2023-02-16T17:11:25.678Z,5.36
2023-02-16T17:13:54.718Z,5.32
2023-02-16T17:16:24.380Z,5.30
2023-02-16T17:18:53.125Z,5.22
2023-02-16T17:21:20.624Z,5.25
2023-02-16T17:23:53.026Z,5.22
2023-02-16T17:26:20.657Z,5.22
2023-02-16T17:28:48.049Z,5.14
2023-02-16T17:31:15.477Z,5.15
2023-02-16T17:33:42.824Z,5.26
2023-02-16T17:36:15.103Z,5.19
2023-02-16T17:38:42.653Z,5.14
2023-02-16T17:41:17.580Z,5.24
2023-02-16T17:43:44.851Z,5.26
2023-02-16T17:46:13.327Z,5.26
2023-02-16T17:48:40.627Z,5.23
2023-02-16T17:51:11.993Z,5.25
2023-02-16T17:53:41.243Z,5.28
2023-02-16T17:56:11.285Z,5.26
2023-02-16T17:58:38.554Z,5.09
2023-02-16T18:01:05.915Z,5.09
2023-02-16T18:03:33.249Z,5.23
2023-02-16T18:06:02.740Z,5.33
2023-02-16T18:08:30.122Z,5.23
2023-02-16T18:11:02.027Z,5.30
2023-02-16T18:13:29.393Z,5.32
2023-02-16T18:15:57.346Z,5.34
2023-02-16T18:18:24.665Z,5.41
2023-02-16T18:20:51.951Z,5.36
2023-02-16T18:23:19.268Z,5.28
2023-02-16T18:25:46.878Z,5.16
2023-02-16T18:28:18.262Z,5.14
2023-02-16T18:30:45.636Z,5.17
2023-02-16T18:33:12.950Z,5.12
2023-02-16T18:35:40.237Z,5.09
2023-02-16T18:38:07.637Z,5.02
2023-02-16T18:40:34.985Z,4.89
2023-02-16T18:43:02.278Z,4.97
2023-02-16T18:45:30.901Z,5.03
2023-02-16T18:47:58.198Z,4.88
2023-02-16T18:50:25.464Z,4.91
2023-02-16T18:52:54.489Z,5.01
2023-02-16T18:55:21.762Z,4.69
2023-02-16T18:57:49.024Z,4.81
2023-02-16T19:00:17.313Z,4.85
2023-02-16T19:02:45.901Z,4.87
2023-02-16T19:05:13.263Z,4.85
2023-02-16T19:07:40.829Z,4.76
2023-02-16T19:10:10.319Z,4.73
2023-02-16T19:12:37.693Z,4.65
2023-02-16T19:15:05.312Z,4.82
2023-02-16T19:17:32.612Z,4.75
2023-02-16T19:20:01.225Z,4.71
2023-02-16T19:22:28.794Z,4.73
2023-02-16T19:24:56.091Z,4.76
2023-02-16T19:27:23.332Z,4.52
2023-02-16T19:29:50.641Z,4.50
2023-02-16T19:32:19.206Z,4.62
2023-02-16T19:34:46.531Z,4.71
2023-02-16T19:37:15.291Z,4.76
2023-02-16T19:39:42.557Z,4.89
2023-02-16T19:42:09.830Z,4.95
2023-02-16T19:44:37.113Z,4.97
2023-02-16T19:47:04.426Z,4.93
2023-02-16T19:49:31.710Z,5.04
2023-02-16T19:52:02.298Z,5.00
2023-02-16T19:54:32.368Z,5.05
2023-02-16T19:56:59.662Z,5.09
2023-02-16T19:59:26.978Z,5.10
2023-02-16T20:01:54.598Z,5.02
2023-02-16T20:04:21.881Z,5.00
2023-02-16T20:06:49.652Z,5.09
2023-02-16T20:09:17.624Z,5.09
2023-02-16T20:11:46.230Z,5.03
2023-02-16T20:14:13.558Z,5.12
2023-02-16T20:16:41.268Z,5.20
2023-02-16T20:19:08.563Z,5.11
2023-02-16T20:21:35.855Z,5.10
2023-02-16T20:24:04.068Z,5.12
2023-02-16T20:26:34.351Z,5.13
2023-02-16T20:29:03.606Z,5.05
2023-02-16T20:31:32.450Z,5.22
2023-02-16T20:34:00.380Z,5.21
2023-02-16T20:36:27.810Z,5.31
2023-02-16T20:38:55.176Z,5.39
2023-02-16T20:41:22.429Z,5.29
2023-02-16T20:43:49.709Z,5.34
2023-02-16T20:46:18.717Z,5.38
2023-02-16T20:48:46.524Z,5.35
2023-02-16T20:51:14.191Z,5.36
2023-02-16T20:53:41.733Z,5.46
2023-02-16T20:56:10.288Z,5.43
2023-02-16T20:58:38.109Z,5.57
2023-02-16T21:01:10.914Z,5.62
2023-02-16T21:03:39.689Z,5.57
2023-02-16T21:06:07.292Z,5.60
2023-02-16T21:08:34.923Z,5.68
2023-02-16T21:11:02.211Z,5.74
2023-02-16T21:13:29.592Z,5.77
2023-02-16T21:15:56.930Z,5.64
2023-02-16T21:18:24.248Z,5.60
2023-02-16T21:20:52.818Z,5.61
2023-02-16T21:23:20.092Z,5.67
2023-02-16T21:25:47.340Z,5.69
2023-02-16T21:28:14.663Z,5.74
2023-02-16T21:30:44.428Z,5.72
2023-02-16T21:33:11.699Z,5.81
2023-02-16T21:35:38.967Z,5.74
2023-02-16T21:38:07.536Z,5.82
2023-02-16T21:40:52.299Z,5.83
2023-02-16T21:43:19.616Z,5.78
2023-02-16T21:45:48.210Z,5.94
2023-02-16T21:48:33.035Z,5.80
2023-02-16T21:51:01.749Z,5.90
2023-02-16T21:53:31.271Z,5.84
2023-02-16T21:56:16.400Z,5.97
2023-02-16T21:58:43.944Z,5.89
2023-02-16T22:01:11.252Z,5.83
2023-02-16T22:03:38.672Z,5.87
2023-02-16T22:06:07.356Z,5.89
2023-02-16T22:08:37.984Z,5.99
2023-02-16T22:11:06.502Z,5.85
2023-02-16T22:13:33.887Z,5.97
2023-02-16T22:16:01.160Z,5.93
2023-02-16T22:18:28.424Z,5.93
2023-02-16T22:20:55.675Z,6.00
2023-02-16T22:23:23.030Z,6.02
2023-02-16T22:25:51.600Z,5.99
2023-02-16T22:28:18.846Z,6.19
2023-02-16T22:30:46.134Z,6.24
2023-02-16T22:33:13.429Z,6.24
2023-02-16T22:35:40.689Z,6.14
2023-02-16T22:38:07.960Z,6.21
2023-02-16T22:40:35.250Z,6.12
2023-02-16T22:43:03.816Z,6.12
2023-02-16T22:45:31.110Z,6.12
2023-02-16T22:47:58.693Z,6.17
2023-02-16T22:50:25.967Z,6.10
2023-02-16T22:52:53.483Z,6.17
2023-02-16T22:55:20.738Z,6.18
2023-02-16T22:57:48.014Z,6.16
2023-02-16T23:00:17.232Z,6.09
2023-02-16T23:02:44.488Z,6.10
2023-02-16T23:05:11.750Z,6.06
2023-02-16T23:07:39.134Z,6.13
2023-02-16T23:10:07.058Z,6.17
2023-02-16T23:12:34.317Z,6.32
2023-02-16T23:15:01.572Z,6.35
2023-02-16T23:17:30.175Z,6.32
2023-02-16T23:19:57.453Z,6.38
2023-02-16T23:22:24.710Z,6.34
2023-02-16T23:25:12.600Z,6.38
2023-02-16T23:27:39.877Z,6.36
2023-02-16T23:30:07.856Z,6.38
2023-02-16T23:32:36.512Z,6.34
2023-02-16T23:35:04.058Z,6.37
2023-02-16T23:37:31.962Z,6.32
2023-02-16T23:40:00.172Z,6.30
2023-02-16T23:42:27.437Z,6.23
2023-02-16T23:44:55.285Z,6.24
2023-02-16T23:47:22.557Z,6.26
2023-02-16T23:49:51.172Z,6.30
2023-02-16T23:52:18.636Z,6.16
2023-02-16T23:54:45.908Z,6.17
2023-02-16T23:57:13.223Z,6.24
2023-02-16T23:59:40.622Z,6.37
